Canyon Crest, California
Current Conditions -  °F | °C
As of 7:53 AM on Friday 31 Oct 2014 (Local Time) from KRAL Reporting Station
Haze Haze  
Wind Chill: 58°   Ceiling: 1500
Heat Index: 58°   Visibility: 6mi
Dew Point: 55°   Wind: 0mph
Humidity: 90%   Direction: NA
Pressure: 29.98"   Gusts: NA
Location:  33.9841°N, 117.329°W
Report Text: KRAL 311453Z 00000KT 6SM BR BKN015 14/13 A2998 RMK AO2 SLP142 T01440128 53008
Loading
Personal Weather Stations






























Interactive Weather Map
Tropical Storm Tracking
New forecast layout! Learn more

10-Day Weather Forecast

Advertisements
Track Severe Weather on mobile